createdAt,value
2022-09-05T00:00:06.336Z,95667.09
2022-09-05T00:03:02.042Z,95672.28
2022-09-05T00:06:01.735Z,95666.63
2022-09-05T00:08:44.445Z,95662.72
2022-09-05T00:11:40.416Z,95665.63
2022-09-05T00:14:34.185Z,95664.19
2022-09-05T00:18:06.538Z,95664.13
2022-09-05T00:24:25.192Z,95659.25
2022-09-05T00:24:33.059Z,95657.44
2022-09-05T00:26:22.905Z,95663.19
2022-09-05T00:28:58.617Z,95664.63
2022-09-05T00:31:55.890Z,95666.44
2022-09-05T00:34:56.688Z,95651.84
2022-09-05T00:37:33.516Z,95653.13
2022-09-05T00:40:23.551Z,95657.34
2022-09-05T00:42:55.629Z,95657.34
2022-09-05T00:45:32.015Z,95656.03
2022-09-05T00:48:09.353Z,95647.06
2022-09-05T00:50:59.803Z,95636.34
2022-09-05T00:53:37.912Z,95643.56
2022-09-05T00:56:20.939Z,95648.03
2022-09-05T00:59:28.538Z,95654.22
2022-09-05T01:02:05.700Z,95647.81
2022-09-05T01:04:44.227Z,95642.28
2022-09-05T01:07:28.252Z,95655.34
2022-09-05T01:10:12.495Z,95651.66
2022-09-05T01:12:59.184Z,95648.19
2022-09-05T01:15:37.588Z,95657.81
2022-09-05T01:18:20.944Z,95660.97
2022-09-05T01:21:12.396Z,95650.56
2022-09-05T01:23:55.421Z,95654.16
2022-09-05T01:26:45.783Z,95647.75
2022-09-05T01:29:20.852Z,95647.97
2022-09-05T01:32:15.381Z,95657.41
2022-09-05T01:34:57.695Z,95657.09
2022-09-05T01:37:34.289Z,95652.03
2022-09-05T01:40:16.691Z,95664.13
2022-09-05T01:43:02.496Z,95647.06
2022-09-05T01:45:46.555Z,95661.41
2022-09-05T01:48:28.353Z,95654.56
2022-09-05T01:51:28.259Z,95651.56
2022-09-05T01:54:10.133Z,95657.03
2022-09-05T01:57:03.458Z,95649.69
2022-09-05T01:59:45.862Z,95655.50
2022-09-05T02:02:35.432Z,95652.13
2022-09-05T02:05:48.434Z,95655.06
2022-09-05T02:08:35.780Z,95652.72
2022-09-05T02:11:07.100Z,95646.06
2022-09-05T02:13:53.473Z,95650.84
2022-09-05T02:16:29.624Z,95656.81
2022-09-05T02:19:08.503Z,95659.78
2022-09-05T02:21:56.289Z,95661.09
2022-09-05T02:24:29.365Z,95666.22
2022-09-05T02:27:53.477Z,95654.31
2022-09-05T02:30:13.690Z,95658.59
2022-09-05T02:32:52.679Z,95660.09
2022-09-05T02:35:28.246Z,95666.03
2022-09-05T02:38:03.333Z,95662.78
2022-09-05T02:45:13.701Z,95676.06
2022-09-05T02:45:20.601Z,95672.78
2022-09-05T02:46:51.407Z,95659.97
2022-09-05T02:51:02.561Z,95656.59
2022-09-05T02:57:26.825Z,95676.59
2022-09-05T02:57:47.028Z,95673.22
2022-09-05T02:58:26.130Z,95670.88
2022-09-05T03:01:02.765Z,95666.28
2022-09-05T03:03:39.290Z,95671.63
2022-09-05T03:06:34.274Z,95658.63
2022-09-05T03:09:22.546Z,95669.63
2022-09-05T03:12:41.018Z,95671.50
2022-09-05T03:15:50.402Z,95668.72
2022-09-05T03:18:47.889Z,95672.22
2022-09-05T03:21:47.962Z,95674.19
2022-09-05T03:24:55.906Z,95675.56
2022-09-05T03:28:03.368Z,95672.56
2022-09-05T03:30:52.806Z,95681.13
2022-09-05T03:33:54.521Z,95678.13
2022-09-05T03:36:58.807Z,95687.56
2022-09-05T03:40:00.678Z,95682.75
2022-09-05T03:42:58.545Z,95673.28
2022-09-05T03:45:46.571Z,95670.91
2022-09-05T03:48:50.945Z,95669.69
2022-09-05T03:57:14.380Z,95665.25
2022-09-05T03:57:26.942Z,95669.38
2022-09-05T03:58:16.762Z,95671.00
2022-09-05T04:01:20.270Z,95671.09
2022-09-05T04:08:13.653Z,95673.06
2022-09-05T04:08:24.411Z,95664.34
2022-09-05T04:09:51.152Z,95666.34
2022-09-05T04:12:23.069Z,95657.22
2022-09-05T04:14:58.037Z,95665.56
2022-09-05T04:17:33.620Z,95659.97
2022-09-05T04:20:11.028Z,95665.44
2022-09-05T04:23:03.168Z,95665.91
2022-09-05T04:25:43.290Z,95664.69
2022-09-05T04:28:23.267Z,95663.94
2022-09-05T04:30:59.723Z,95656.31
2022-09-05T04:33:36.422Z,95654.63
2022-09-05T04:36:19.888Z,95650.84
2022-09-05T04:39:07.988Z,95648.66
2022-09-05T04:41:41.571Z,95656.59
2022-09-05T04:44:16.200Z,95661.31
2022-09-05T04:46:50.104Z,95667.06
2022-09-05T04:49:25.680Z,95675.38
2022-09-05T04:52:23.605Z,95676.13
2022-09-05T04:55:08.285Z,95678.25
2022-09-05T04:57:44.508Z,95678.03
2022-09-05T05:05:22.308Z,95679.84
2022-09-05T05:06:04.736Z,95678.19
2022-09-05T05:06:36.747Z,95677.81
2022-09-05T05:09:01.726Z,95682.78
2022-09-05T05:17:53.718Z,95685.34
2022-09-05T05:18:09.601Z,95681.75
2022-09-05T05:18:10.901Z,95698.41
2022-09-05T05:20:41.281Z,95692.50
2022-09-05T05:23:14.639Z,95702.56
2022-09-05T05:25:49.091Z,95696.63
2022-09-05T05:28:25.297Z,95700.75
2022-09-05T05:31:01.160Z,95709.03
2022-09-05T05:33:33.973Z,95701.47
2022-09-05T05:36:07.794Z,95717.56
2022-09-05T05:38:44.843Z,95720.28
2022-09-05T05:41:20.618Z,95715.69
2022-09-05T05:43:50.862Z,95725.25
2022-09-05T05:46:29.688Z,95716.56
2022-09-05T05:49:15.272Z,95733.69
2022-09-05T05:52:02.564Z,95729.56
2022-09-05T05:54:38.458Z,95727.66
2022-09-05T05:57:35.105Z,95732.53
2022-09-05T06:00:14.936Z,95734.28
2022-09-05T06:03:33.575Z,95735.59
2022-09-05T06:06:38.207Z,95734.06
2022-09-05T06:14:51.434Z,95738.41
2022-09-05T06:15:02.641Z,95743.66
2022-09-05T06:16:47.157Z,95747.97
2022-09-05T06:20:53.045Z,95746.38
2022-09-05T06:23:27.520Z,95756.38
2022-09-05T06:26:33.825Z,95754.16
2022-09-05T06:29:09.727Z,95751.16
2022-09-05T06:32:01.514Z,95749.28
2022-09-05T06:34:59.879Z,95751.09
2022-09-05T06:37:39.928Z,95746.47
2022-09-05T06:40:16.989Z,95743.91
2022-09-05T06:43:04.511Z,95733.88
2022-09-05T06:45:58.655Z,95740.72
2022-09-05T06:48:44.586Z,95735.69
2022-09-05T06:51:49.115Z,95741.09
2022-09-05T06:55:18.557Z,95754.84
2022-09-05T06:58:10.031Z,95748.28
2022-09-05T07:00:47.520Z,95749.63
2022-09-05T07:03:27.529Z,95754.34
2022-09-05T07:06:01.956Z,95749.16
2022-09-05T07:08:48.007Z,95750.63
2022-09-05T07:11:21.003Z,95758.50
2022-09-05T07:14:01.267Z,95764.81
2022-09-05T07:16:47.389Z,95762.88
2022-09-05T07:19:27.285Z,95768.00
2022-09-05T07:22:25.793Z,95762.41
2022-09-05T07:25:09.049Z,95769.06
2022-09-05T07:27:42.000Z,95770.03
2022-09-05T07:30:29.779Z,95771.72
2022-09-05T07:33:06.815Z,95770.72
2022-09-05T07:35:41.737Z,95774.44
2022-09-05T07:38:16.309Z,95774.13
2022-09-05T07:40:52.335Z,95767.19
2022-09-05T07:43:25.376Z,95744.88
2022-09-05T07:46:06.274Z,95773.13
2022-09-05T07:48:38.418Z,95779.25
2022-09-05T07:56:46.084Z,95776.63
2022-09-05T07:57:10.066Z,95778.38
2022-09-05T07:59:54.654Z,95786.13
2022-09-05T08:02:22.679Z,95789.66
2022-09-05T08:05:05.880Z,95784.56
2022-09-05T08:07:46.632Z,95790.66
2022-09-05T08:10:31.162Z,95782.72
2022-09-05T08:13:23.724Z,95786.50
2022-09-05T08:16:12.997Z,95782.63
2022-09-05T08:18:47.701Z,95779.47
2022-09-05T08:21:27.358Z,95775.81
2022-09-05T08:24:13.561Z,95774.69
2022-09-05T08:26:47.260Z,95775.84
2022-09-05T08:29:28.288Z,95781.50
2022-09-05T08:32:02.654Z,95775.97
2022-09-05T08:34:45.619Z,95779.00
2022-09-05T08:37:21.640Z,95778.34
2022-09-05T08:40:02.442Z,95784.00
2022-09-05T08:43:39.352Z,95780.47
2022-09-05T08:46:41.808Z,95767.22
2022-09-05T08:48:47.410Z,95773.44
2022-09-05T08:51:28.436Z,95771.66
2022-09-05T08:54:17.834Z,95771.50
2022-09-05T08:56:55.291Z,95765.44
2022-09-05T09:00:18.449Z,95767.22
2022-09-05T09:03:07.036Z,95780.09
2022-09-05T09:06:13.305Z,95767.31
2022-09-05T09:08:57.119Z,95762.75
2022-09-05T09:11:34.379Z,95759.41
2022-09-05T09:14:35.818Z,95766.31
2022-09-05T09:17:41.202Z,95762.13
2022-09-05T09:20:16.846Z,95762.03
2022-09-05T09:22:58.435Z,95752.69
2022-09-05T09:25:33.978Z,95755.13
2022-09-05T09:28:47.803Z,95759.31
2022-09-05T09:31:16.867Z,95762.44
2022-09-05T09:33:50.943Z,95754.63
2022-09-05T09:36:41.895Z,95757.09
2022-09-05T09:39:38.295Z,95752.97
2022-09-05T09:42:33.598Z,95757.66
2022-09-05T09:45:28.542Z,95755.31
2022-09-05T09:48:41.933Z,95751.66
2022-09-05T09:51:26.985Z,95749.28
2022-09-05T09:54:19.574Z,95753.50
2022-09-05T09:57:20.832Z,95753.75
2022-09-05T10:00:07.593Z,95747.72
2022-09-05T10:04:55.577Z,95751.16
2022-09-05T10:10:46.529Z,95753.44
2022-09-05T10:10:54.672Z,95744.56
2022-09-05T10:13:08.089Z,95753.72
2022-09-05T10:15:55.676Z,95739.63
2022-09-05T10:18:42.393Z,95736.50
2022-09-05T10:21:36.400Z,95745.91
2022-09-05T10:24:43.464Z,95743.78
2022-09-05T10:27:39.278Z,95734.00
2022-09-05T10:30:16.342Z,95732.00
2022-09-05T10:35:18.064Z,95731.97
2022-09-05T10:36:25.584Z,95732.50
2022-09-05T10:39:04.631Z,95729.09
2022-09-05T10:41:44.269Z,95728.22
2022-09-05T10:44:14.380Z,95732.38
2022-09-05T10:46:57.067Z,95727.81
2022-09-05T10:49:30.107Z,95722.81
2022-09-05T10:52:18.796Z,95717.44
2022-09-05T10:55:14.962Z,95721.59
2022-09-05T10:58:01.073Z,95718.41
2022-09-05T11:02:22.429Z,95712.19
2022-09-05T11:03:46.594Z,95713.47
2022-09-05T11:06:20.907Z,95716.00
2022-09-05T11:09:06.132Z,95701.41
2022-09-05T11:11:46.228Z,95705.59
2022-09-05T11:14:36.726Z,95707.75
2022-09-05T11:17:17.336Z,95711.66
2022-09-05T11:19:51.384Z,95699.56
2022-09-05T11:22:23.724Z,95708.78
2022-09-05T11:24:57.004Z,95702.50
2022-09-05T11:27:33.189Z,95696.00
2022-09-05T11:30:08.552Z,95686.75
2022-09-05T11:39:51.961Z,95698.91
2022-09-05T11:39:52.867Z,95689.50
2022-09-05T11:40:00.281Z,95692.72
2022-09-05T11:42:36.685Z,95688.94
2022-09-05T11:45:56.595Z,95686.56
2022-09-05T11:48:53.596Z,95689.41
2022-09-05T11:51:59.815Z,95690.41
2022-09-05T11:55:21.229Z,95678.50
2022-09-05T11:58:19.929Z,95687.19
2022-09-05T12:01:42.193Z,95682.97
2022-09-05T12:04:17.761Z,95674.28
2022-09-05T12:07:26.994Z,95675.50
2022-09-05T12:10:47.876Z,95680.78
2022-09-05T12:13:21.712Z,95677.66
2022-09-05T12:16:08.433Z,95660.63
2022-09-05T12:18:48.048Z,95665.63
2022-09-05T12:21:27.621Z,95663.13
2022-09-05T12:25:17.316Z,95663.16
2022-09-05T12:27:38.662Z,95667.44
2022-09-05T12:29:59.807Z,95663.78
2022-09-05T12:35:48.727Z,95666.28
2022-09-05T12:36:08.392Z,95670.75
2022-09-05T12:40:57.365Z,95665.06
2022-09-05T12:41:46.169Z,95665.72
2022-09-05T12:44:47.248Z,95660.97
2022-09-05T12:47:22.888Z,95666.81
2022-09-05T12:50:03.572Z,95665.94
2022-09-05T12:52:46.497Z,95661.94
2022-09-05T12:55:26.027Z,95659.97
2022-09-05T13:02:58.702Z,95661.56
2022-09-05T13:03:03.809Z,95652.50
2022-09-05T13:04:15.923Z,95650.22
2022-09-05T13:06:40.942Z,95652.91
2022-09-05T13:09:21.229Z,95652.06
2022-09-05T13:14:46.714Z,95654.94
2022-09-05T13:15:18.671Z,95648.19
2022-09-05T13:17:54.625Z,95645.81
2022-09-05T13:20:34.967Z,95633.34
2022-09-05T13:23:11.380Z,95631.66
2022-09-05T13:25:43.243Z,95638.38
2022-09-05T13:28:16.288Z,95633.06
2022-09-05T13:37:53.621Z,95628.16
2022-09-05T13:38:11.133Z,95642.34
2022-09-05T13:38:13.582Z,95629.84
2022-09-05T13:39:37.444Z,95638.97
2022-09-05T13:42:07.245Z,95624.47
2022-09-05T13:44:46.447Z,95618.34
2022-09-05T13:47:29.784Z,95617.19
2022-09-05T13:50:22.318Z,95611.19
2022-09-05T13:52:58.090Z,95609.19
2022-09-05T13:55:44.900Z,95607.50
2022-09-05T13:58:21.506Z,95606.53
2022-09-05T14:01:17.579Z,95602.53
2022-09-05T14:07:46.001Z,95594.59
2022-09-05T14:10:48.411Z,95602.16
2022-09-05T14:13:20.827Z,95599.50
2022-09-05T14:15:55.323Z,95591.19
2022-09-05T14:18:26.019Z,95585.16
2022-09-05T14:21:17.026Z,95592.00
2022-09-05T14:23:55.974Z,95582.88
2022-09-05T14:26:30.129Z,95587.47
2022-09-05T14:29:05.077Z,95585.63
2022-09-05T14:37:43.108Z,95583.19
2022-09-05T14:37:55.079Z,95584.13
2022-09-05T14:38:09.336Z,95584.44
2022-09-05T14:41:35.353Z,95582.78
2022-09-05T14:44:32.051Z,95585.66
2022-09-05T14:47:32.490Z,95583.28
2022-09-05T14:50:35.066Z,95578.41
2022-09-05T14:56:38.324Z,95583.50
2022-09-05T15:02:44.576Z,95585.22
2022-09-05T15:02:48.152Z,95584.31
2022-09-05T15:04:44.583Z,95576.56
2022-09-05T15:07:17.332Z,95582.91
2022-09-05T15:12:14.647Z,95573.50
2022-09-05T15:12:45.994Z,95578.03
2022-09-05T15:15:25.692Z,95570.28
2022-09-05T15:17:57.909Z,95577.28
2022-09-05T15:20:32.221Z,95573.22
2022-09-05T15:23:03.665Z,95564.13
2022-09-05T15:25:47.407Z,95564.91
2022-09-05T15:28:21.596Z,95561.28
2022-09-05T15:30:57.987Z,95563.81
2022-09-05T15:33:30.122Z,95546.69
2022-09-05T15:35:59.196Z,95549.59
2022-09-05T15:38:31.257Z,95552.66
2022-09-05T15:41:08.064Z,95545.63
2022-09-05T15:43:40.123Z,95540.47
2022-09-05T15:46:08.617Z,95538.69
2022-09-05T15:48:40.857Z,95536.63
2022-09-05T15:51:18.864Z,95536.78
2022-09-05T15:53:52.522Z,95534.94
2022-09-05T15:56:24.482Z,95530.00
2022-09-05T15:58:57.502Z,95540.22
2022-09-05T16:01:46.411Z,95543.81
2022-09-05T16:09:16.606Z,95549.03
2022-09-05T16:10:37.467Z,95539.44
2022-09-05T16:10:41.439Z,95533.91
2022-09-05T16:12:51.830Z,95553.31
2022-09-05T16:17:52.505Z,95545.53
2022-09-05T16:23:17.780Z,95539.25
2022-09-05T16:23:26.557Z,95531.94
2022-09-05T16:24:05.201Z,95544.53
2022-09-05T16:26:37.011Z,95542.38
2022-09-05T16:29:10.931Z,95541.84
2022-09-05T16:31:46.286Z,95550.94
2022-09-05T16:34:26.515Z,95542.06
2022-09-05T16:37:09.035Z,95541.38
2022-09-05T16:39:40.359Z,95543.91
2022-09-05T16:42:17.408Z,95540.59
2022-09-05T16:44:52.390Z,95542.75
2022-09-05T16:47:25.810Z,95543.31
2022-09-05T16:50:02.808Z,95537.94
2022-09-05T16:52:40.080Z,95538.34
2022-09-05T16:55:28.950Z,95530.44
2022-09-05T16:58:03.450Z,95533.63
2022-09-05T17:01:05.732Z,95536.78
2022-09-05T17:03:43.922Z,95530.41
2022-09-05T17:06:25.567Z,95534.56
2022-09-05T17:09:12.134Z,95521.91
2022-09-05T17:11:59.831Z,95527.59
2022-09-05T17:14:34.526Z,95534.84
2022-09-05T17:17:20.248Z,95522.38
2022-09-05T17:20:05.906Z,95527.50
2022-09-05T17:26:35.216Z,95522.63
2022-09-05T17:29:18.037Z,95523.00
2022-09-05T17:29:24.826Z,95527.03
2022-09-05T17:31:57.591Z,95521.63
2022-09-05T17:35:18.001Z,95524.81
2022-09-05T17:38:29.458Z,95532.47
2022-09-05T17:41:30.876Z,95528.34
2022-09-05T17:44:07.359Z,95527.34
2022-09-05T17:46:44.217Z,95521.28
2022-09-05T17:49:19.405Z,95514.50
2022-09-05T17:52:22.971Z,95523.38
2022-09-05T17:54:53.864Z,95516.56
2022-09-05T17:57:45.162Z,95514.94
2022-09-05T18:01:05.431Z,95518.03
2022-09-05T18:04:15.957Z,95519.56
2022-09-05T18:06:59.220Z,95520.34
2022-09-05T18:10:03.496Z,95521.63
2022-09-05T18:16:11.702Z,95523.94
2022-09-05T18:19:32.122Z,95520.00
2022-09-05T18:21:48.194Z,95524.09
2022-09-05T18:27:43.950Z,95524.47
2022-09-05T18:30:33.289Z,95525.22
2022-09-05T18:33:55.394Z,95523.56
2022-09-05T18:36:35.845Z,95523.28
2022-09-05T18:39:49.376Z,95531.00
2022-09-05T18:42:33.583Z,95530.22
2022-09-05T18:45:15.441Z,95532.56
2022-09-05T18:47:52.686Z,95528.13
2022-09-05T18:50:32.408Z,95527.06
2022-09-05T18:53:09.636Z,95517.38
2022-09-05T18:56:12.582Z,95522.94
2022-09-05T18:58:53.994Z,95521.66
2022-09-05T19:01:33.351Z,95518.03
2022-09-05T19:04:06.840Z,95527.63
2022-09-05T19:06:45.162Z,95528.13
2022-09-05T19:09:27.229Z,95529.13
2022-09-05T19:12:33.148Z,95523.13
2022-09-05T19:14:54.431Z,95528.13
2022-09-05T19:17:32.482Z,95525.00
2022-09-05T19:20:31.551Z,95522.94
2022-09-05T19:23:11.300Z,95526.31
2022-09-05T19:25:42.897Z,95526.72
2022-09-05T19:32:10.690Z,95525.63
2022-09-05T19:36:54.501Z,95518.25
2022-09-05T19:36:54.643Z,95527.03
2022-09-05T19:37:26.269Z,95513.88
2022-09-05T19:43:24.115Z,95518.69
2022-09-05T19:47:35.919Z,95510.84
2022-09-05T19:47:40.606Z,95508.47
2022-09-05T19:48:26.040Z,95507.28
2022-09-05T19:50:56.392Z,95515.94
2022-09-05T19:53:26.279Z,95498.75
2022-09-05T19:55:55.900Z,95511.00
2022-09-05T19:58:25.467Z,95505.53
2022-09-05T20:01:06.026Z,95507.13
2022-09-05T20:03:39.415Z,95508.63
2022-09-05T20:06:28.718Z,95498.22
2022-09-05T20:09:15.361Z,95494.81
2022-09-05T20:11:51.251Z,95497.34
2022-09-05T20:14:22.360Z,95491.09
2022-09-05T20:16:51.401Z,95488.25
2022-09-05T20:19:32.440Z,95487.25
2022-09-05T20:22:10.202Z,95483.69
2022-09-05T20:24:53.844Z,95477.75
2022-09-05T20:27:27.046Z,95481.56
2022-09-05T20:29:58.956Z,95484.78
2022-09-05T20:32:38.867Z,95484.00
2022-09-05T20:38:42.119Z,95481.69
2022-09-05T20:43:19.664Z,95473.34
2022-09-05T20:43:27.684Z,95473.94
2022-09-05T20:43:57.760Z,95473.72
2022-09-05T20:48:55.805Z,95466.22
2022-09-05T20:54:06.059Z,95468.66
2022-09-05T20:54:18.043Z,95473.19
2022-09-05T20:55:39.196Z,95471.13
2022-09-05T20:57:51.488Z,95472.72
2022-09-05T21:00:22.513Z,95470.91
2022-09-05T21:02:54.729Z,95475.38
2022-09-05T21:05:30.135Z,95469.25
2022-09-05T21:08:26.057Z,95466.53
2022-09-05T21:10:56.520Z,95457.91
2022-09-05T21:13:29.733Z,95462.63
2022-09-05T21:15:58.396Z,95456.59
2022-09-05T21:18:33.880Z,95453.81
2022-09-05T21:21:28.960Z,95451.78
2022-09-05T21:24:16.502Z,95454.81
2022-09-05T21:26:48.140Z,95445.72
2022-09-05T21:29:27.374Z,95439.50
2022-09-05T21:32:03.862Z,95449.66
2022-09-05T21:34:44.698Z,95460.38
2022-09-05T21:37:14.289Z,95462.31
2022-09-05T21:39:46.757Z,95460.50
2022-09-05T21:43:46.562Z,95452.28
2022-09-05T21:47:43.997Z,95461.00
2022-09-05T21:48:06.807Z,95466.16
2022-09-05T21:50:40.878Z,95458.53
2022-09-05T21:55:14.828Z,95464.03
2022-09-05T21:59:24.589Z,95470.88
2022-09-05T21:59:30.400Z,95469.66
2022-09-05T22:01:55.339Z,95455.53
2022-09-05T22:04:23.319Z,95454.06
2022-09-05T22:06:53.301Z,95455.88
2022-09-05T22:09:22.841Z,95446.09
2022-09-05T22:11:51.205Z,95448.91
2022-09-05T22:14:19.972Z,95445.06
2022-09-05T22:16:50.346Z,95446.94
2022-09-05T22:19:26.194Z,95440.09
2022-09-05T22:22:00.958Z,95451.41
2022-09-05T22:24:32.830Z,95448.19
2022-09-05T22:27:11.917Z,95446.84
2022-09-05T22:29:41.287Z,95450.13
2022-09-05T22:32:09.427Z,95450.13
2022-09-05T22:34:38.675Z,95444.69
2022-09-05T22:37:06.782Z,95437.94
2022-09-05T22:39:36.897Z,95450.53
2022-09-05T22:42:10.395Z,95436.69
2022-09-05T22:44:40.053Z,95440.53
2022-09-05T22:47:08.578Z,95437.63
2022-09-05T22:49:37.304Z,95440.53
2022-09-05T22:52:08.558Z,95438.19
2022-09-05T22:54:37.109Z,95433.88
2022-09-05T22:57:05.541Z,95438.16
2022-09-05T22:59:33.461Z,95441.31
2022-09-05T23:02:01.338Z,95438.50
2022-09-05T23:04:29.282Z,95438.72
2022-09-05T23:06:57.329Z,95443.50
2022-09-05T23:09:27.973Z,95429.84
2022-09-05T23:11:55.897Z,95439.53
2022-09-05T23:14:23.712Z,95435.81
2022-09-05T23:16:51.901Z,95438.28
2022-09-05T23:19:19.817Z,95433.88
2022-09-05T23:21:47.647Z,95431.59
2022-09-05T23:24:15.449Z,95435.78
2022-09-05T23:26:44.662Z,95432.44
2022-09-05T23:29:12.480Z,95431.31
2022-09-05T23:31:40.344Z,95423.06
2022-09-05T23:34:08.155Z,95423.06
2022-09-05T23:36:36.140Z,95411.56
2022-09-05T23:39:04.113Z,95421.16
2022-09-05T23:41:31.946Z,95424.31
2022-09-05T23:44:10.612Z,95411.63
2022-09-05T23:46:40.464Z,95414.13
2022-09-05T23:49:10.817Z,95409.03
2022-09-05T23:51:38.686Z,95404.06
2022-09-05T23:54:06.618Z,95408.69
2022-09-05T23:56:34.468Z,95407.69
2022-09-05T23:59:02.873Z,95399.25
